sensor_id;sensor_type;location;lat;lon;timestamp;P1;durP1;ratioP1;P2;durP2;ratioP2
3783;SDS011;1907;49.238;9.262;2022-08-21T00:02:17;3.83;;;3.73;;
3783;SDS011;1907;49.238;9.262;2022-08-21T00:04:45;3.40;;;3.20;;
3783;SDS011;1907;49.238;9.262;2022-08-21T00:07:11;5.47;;;4.90;;
3783;SDS011;1907;49.238;9.262;2022-08-21T00:09:36;5.00;;;4.70;;
3783;SDS011;1907;49.238;9.262;2022-08-21T00:12:02;4.87;;;4.57;;
3783;SDS011;1907;49.238;9.262;2022-08-21T00:14:28;3.67;;;3.47;;
3783;SDS011;1907;49.238;9.262;2022-08-21T00:16:54;6.90;;;4.43;;
3783;SDS011;1907;49.238;9.262;2022-08-21T00:19:20;4.60;;;4.40;;
3783;SDS011;1907;49.238;9.262;2022-08-21T00:21:49;4.30;;;4.10;;
3783;SDS011;1907;49.238;9.262;2022-08-21T00:24:20;17.70;;;4.10;;
3783;SDS011;1907;49.238;9.262;2022-08-21T00:26:47;4.03;;;3.90;;
3783;SDS011;1907;49.238;9.262;2022-08-21T00:29:13;4.23;;;4.03;;
3783;SDS011;1907;49.238;9.262;2022-08-21T00:31:40;4.07;;;3.70;;
3783;SDS011;1907;49.238;9.262;2022-08-21T00:34:06;4.33;;;4.13;;
3783;SDS011;1907;49.238;9.262;2022-08-21T00:36:32;14.40;;;4.77;;
3783;SDS011;1907;49.238;9.262;2022-08-21T00:38:59;5.13;;;4.70;;
3783;SDS011;1907;49.238;9.262;2022-08-21T00:41:25;4.30;;;4.17;;
3783;SDS011;1907;49.238;9.262;2022-08-21T00:43:52;3.23;;;3.00;;
3783;SDS011;1907;49.238;9.262;2022-08-21T00:46:21;3.87;;;3.67;;
3783;SDS011;1907;49.238;9.262;2022-08-21T00:48:56;2.90;;;2.67;;
3783;SDS011;1907;49.238;9.262;2022-08-21T00:51:24;9.50;;;3.07;;
3783;SDS011;1907;49.238;9.262;2022-08-21T00:53:55;4.30;;;3.33;;
3783;SDS011;1907;49.238;9.262;2022-08-21T00:56:25;3.77;;;3.67;;
3783;SDS011;1907;49.238;9.262;2022-08-21T00:58:51;2.97;;;2.87;;
3783;SDS011;1907;49.238;9.262;2022-08-21T01:01:18;3.40;;;3.30;;
3783;SDS011;1907;49.238;9.262;2022-08-21T01:03:44;3.60;;;3.47;;
3783;SDS011;1907;49.238;9.262;2022-08-21T01:06:10;3.27;;;2.40;;
3783;SDS011;1907;49.238;9.262;2022-08-21T01:08:36;2.60;;;2.50;;
3783;SDS011;1907;49.238;9.262;2022-08-21T01:11:02;3.10;;;2.50;;
3783;SDS011;1907;49.238;9.262;2022-08-21T01:13:29;3.33;;;3.20;;
3783;SDS011;1907;49.238;9.262;2022-08-21T01:15:56;3.60;;;3.30;;
3783;SDS011;1907;49.238;9.262;2022-08-21T01:18:25;2.93;;;2.73;;
3783;SDS011;1907;49.238;9.262;2022-08-21T01:23:29;3.87;;;3.77;;
3783;SDS011;1907;49.238;9.262;2022-08-21T01:25:55;3.70;;;3.60;;
3783;SDS011;1907;49.238;9.262;2022-08-21T01:28:21;5.60;;;5.40;;
3783;SDS011;1907;49.238;9.262;2022-08-21T01:30:48;4.80;;;4.27;;
3783;SDS011;1907;49.238;9.262;2022-08-21T01:33:15;5.80;;;4.70;;
3783;SDS011;1907;49.238;9.262;2022-08-21T01:35:46;9.17;;;4.50;;
3783;SDS011;1907;49.238;9.262;2022-08-21T01:38:12;5.73;;;3.53;;
3783;SDS011;1907;49.238;9.262;2022-08-21T01:40:37;4.13;;;4.03;;
3783;SDS011;1907;49.238;9.262;2022-08-21T01:43:03;4.90;;;4.70;;
3783;SDS011;1907;49.238;9.262;2022-08-21T01:45:29;5.63;;;5.23;;
3783;SDS011;1907;49.238;9.262;2022-08-21T01:47:55;4.30;;;4.10;;
3783;SDS011;1907;49.238;9.262;2022-08-21T01:50:20;5.20;;;4.17;;
3783;SDS011;1907;49.238;9.262;2022-08-21T01:52:46;4.93;;;4.50;;
3783;SDS011;1907;49.238;9.262;2022-08-21T01:55:13;4.30;;;4.10;;
3783;SDS011;1907;49.238;9.262;2022-08-21T01:57:40;4.20;;;4.00;;
3783;SDS011;1907;49.238;9.262;2022-08-21T02:00:07;4.30;;;4.10;;
3783;SDS011;1907;49.238;9.262;2022-08-21T02:02:35;9.40;;;4.80;;
3783;SDS011;1907;49.238;9.262;2022-08-21T02:05:01;4.67;;;4.47;;
3783;SDS011;1907;49.238;9.262;2022-08-21T02:07:34;5.20;;;4.83;;
3783;SDS011;1907;49.238;9.262;2022-08-21T02:10:02;6.50;;;6.10;;
3783;SDS011;1907;49.238;9.262;2022-08-21T02:12:29;5.70;;;5.20;;
3783;SDS011;1907;49.238;9.262;2022-08-21T02:14:55;6.50;;;6.00;;
3783;SDS011;1907;49.238;9.262;2022-08-21T02:17:20;7.27;;;6.70;;
3783;SDS011;1907;49.238;9.262;2022-08-21T02:19:47;6.37;;;5.77;;
3783;SDS011;1907;49.238;9.262;2022-08-21T02:22:13;6.90;;;6.60;;
3783;SDS011;1907;49.238;9.262;2022-08-21T02:24:39;5.73;;;5.40;;
3783;SDS011;1907;49.238;9.262;2022-08-21T02:27:04;5.23;;;4.73;;
3783;SDS011;1907;49.238;9.262;2022-08-21T02:29:30;5.10;;;4.70;;
3783;SDS011;1907;49.238;9.262;2022-08-21T02:31:55;4.30;;;4.10;;
3783;SDS011;1907;49.238;9.262;2022-08-21T02:34:21;4.27;;;4.07;;
3783;SDS011;1907;49.238;9.262;2022-08-21T02:36:47;4.77;;;4.50;;
3783;SDS011;1907;49.238;9.262;2022-08-21T02:39:12;4.63;;;4.43;;
3783;SDS011;1907;49.238;9.262;2022-08-21T02:41:38;5.10;;;4.80;;
3783;SDS011;1907;49.238;9.262;2022-08-21T02:44:04;5.57;;;5.37;;
3783;SDS011;1907;49.238;9.262;2022-08-21T02:46:30;5.40;;;5.20;;
3783;SDS011;1907;49.238;9.262;2022-08-21T02:48:56;5.13;;;4.83;;
3783;SDS011;1907;49.238;9.262;2022-08-21T02:51:22;4.33;;;4.13;;
3783;SDS011;1907;49.238;9.262;2022-08-21T02:53:49;4.47;;;3.73;;
3783;SDS011;1907;49.238;9.262;2022-08-21T02:56:16;3.80;;;3.70;;
3783;SDS011;1907;49.238;9.262;2022-08-21T02:58:45;3.87;;;3.77;;
3783;SDS011;1907;49.238;9.262;2022-08-21T03:01:14;3.37;;;3.07;;
3783;SDS011;1907;49.238;9.262;2022-08-21T03:03:41;4.00;;;3.60;;
3783;SDS011;1907;49.238;9.262;2022-08-21T03:06:08;4.13;;;4.03;;
3783;SDS011;1907;49.238;9.262;2022-08-21T03:08:36;3.93;;;3.50;;
3783;SDS011;1907;49.238;9.262;2022-08-21T03:11:03;3.30;;;3.10;;
3783;SDS011;1907;49.238;9.262;2022-08-21T03:13:29;3.93;;;3.47;;
3783;SDS011;1907;49.238;9.262;2022-08-21T03:15:55;8.70;;;4.23;;
3783;SDS011;1907;49.238;9.262;2022-08-21T03:18:21;10.60;;;3.93;;
3783;SDS011;1907;49.238;9.262;2022-08-21T03:20:47;9.33;;;3.70;;
3783;SDS011;1907;49.238;9.262;2022-08-21T03:23:14;4.10;;;3.80;;
3783;SDS011;1907;49.238;9.262;2022-08-21T03:25:41;3.77;;;3.67;;
3783;SDS011;1907;49.238;9.262;2022-08-21T03:28:11;3.70;;;3.50;;
3783;SDS011;1907;49.238;9.262;2022-08-21T03:30:38;3.53;;;3.33;;
3783;SDS011;1907;49.238;9.262;2022-08-21T03:33:08;3.93;;;3.73;;
3783;SDS011;1907;49.238;9.262;2022-08-21T03:35:34;4.10;;;3.83;;
3783;SDS011;1907;49.238;9.262;2022-08-21T03:38:00;4.07;;;3.97;;
3783;SDS011;1907;49.238;9.262;2022-08-21T03:40:26;3.60;;;3.50;;
3783;SDS011;1907;49.238;9.262;2022-08-21T03:42:51;2.97;;;2.77;;
3783;SDS011;1907;49.238;9.262;2022-08-21T03:45:17;3.53;;;3.33;;
3783;SDS011;1907;49.238;9.262;2022-08-21T03:50:20;5.20;;;4.00;;
3783;SDS011;1907;49.238;9.262;2022-08-21T03:52:47;4.93;;;2.93;;
3783;SDS011;1907;49.238;9.262;2022-08-21T03:55:12;3.23;;;3.03;;
3783;SDS011;1907;49.238;9.262;2022-08-21T03:57:38;4.80;;;3.63;;
3783;SDS011;1907;49.238;9.262;2022-08-21T04:00:04;3.27;;;3.17;;
3783;SDS011;1907;49.238;9.262;2022-08-21T04:02:33;3.60;;;3.50;;
3783;SDS011;1907;49.238;9.262;2022-08-21T04:04:58;4.30;;;4.00;;
3783;SDS011;1907;49.238;9.262;2022-08-21T04:07:24;3.40;;;3.30;;
3783;SDS011;1907;49.238;9.262;2022-08-21T04:09:50;3.23;;;3.13;;
3783;SDS011;1907;49.238;9.262;2022-08-21T04:12:15;4.20;;;4.00;;
3783;SDS011;1907;49.238;9.262;2022-08-21T04:14:41;5.53;;;3.80;;
3783;SDS011;1907;49.238;9.262;2022-08-21T04:17:06;3.50;;;3.40;;
3783;SDS011;1907;49.238;9.262;2022-08-21T04:19:32;6.03;;;3.97;;
3783;SDS011;1907;49.238;9.262;2022-08-21T04:21:58;3.87;;;3.77;;
3783;SDS011;1907;49.238;9.262;2022-08-21T04:24:23;3.93;;;3.77;;
3783;SDS011;1907;49.238;9.262;2022-08-21T04:26:49;3.40;;;3.17;;
3783;SDS011;1907;49.238;9.262;2022-08-21T04:29:15;3.87;;;3.73;;
3783;SDS011;1907;49.238;9.262;2022-08-21T04:31:40;4.10;;;3.90;;
3783;SDS011;1907;49.238;9.262;2022-08-21T04:34:08;4.43;;;4.20;;
3783;SDS011;1907;49.238;9.262;2022-08-21T04:36:34;5.33;;;3.37;;
3783;SDS011;1907;49.238;9.262;2022-08-21T04:38:59;4.53;;;4.13;;
3783;SDS011;1907;49.238;9.262;2022-08-21T04:41:25;4.87;;;4.53;;
3783;SDS011;1907;49.238;9.262;2022-08-21T04:43:51;3.80;;;3.53;;
3783;SDS011;1907;49.238;9.262;2022-08-21T04:46:16;5.20;;;4.80;;
3783;SDS011;1907;49.238;9.262;2022-08-21T04:48:43;4.00;;;3.70;;
3783;SDS011;1907;49.238;9.262;2022-08-21T04:51:10;4.57;;;4.13;;
3783;SDS011;1907;49.238;9.262;2022-08-21T04:54:00;3.67;;;3.50;;
3783;SDS011;1907;49.238;9.262;2022-08-21T04:56:30;6.60;;;3.57;;
3783;SDS011;1907;49.238;9.262;2022-08-21T04:59:04;3.70;;;3.60;;
3783;SDS011;1907;49.238;9.262;2022-08-21T05:01:36;4.80;;;4.40;;
3783;SDS011;1907;49.238;9.262;2022-08-21T05:04:03;3.63;;;3.40;;
3783;SDS011;1907;49.238;9.262;2022-08-21T05:06:30;3.30;;;3.20;;
3783;SDS011;1907;49.238;9.262;2022-08-21T05:09:00;3.57;;;3.47;;
3783;SDS011;1907;49.238;9.262;2022-08-21T05:11:26;3.60;;;3.40;;
3783;SDS011;1907;49.238;9.262;2022-08-21T05:13:52;4.43;;;3.50;;
3783;SDS011;1907;49.238;9.262;2022-08-21T05:16:18;2.93;;;2.83;;
3783;SDS011;1907;49.238;9.262;2022-08-21T05:18:44;3.17;;;3.07;;
3783;SDS011;1907;49.238;9.262;2022-08-21T05:21:17;3.70;;;3.60;;
3783;SDS011;1907;49.238;9.262;2022-08-21T05:24:02;3.53;;;3.30;;
3783;SDS011;1907;49.238;9.262;2022-08-21T05:26:28;2.83;;;2.73;;
3783;SDS011;1907;49.238;9.262;2022-08-21T05:28:55;3.43;;;3.33;;
3783;SDS011;1907;49.238;9.262;2022-08-21T05:31:29;2.80;;;2.70;;
3783;SDS011;1907;49.238;9.262;2022-08-21T05:34:57;3.60;;;3.40;;
3783;SDS011;1907;49.238;9.262;2022-08-21T05:37:23;2.90;;;2.80;;
3783;SDS011;1907;49.238;9.262;2022-08-21T05:39:49;2.47;;;2.37;;
3783;SDS011;1907;49.238;9.262;2022-08-21T05:42:15;4.03;;;1.80;;
3783;SDS011;1907;49.238;9.262;2022-08-21T05:44:41;2.30;;;2.20;;
3783;SDS011;1907;49.238;9.262;2022-08-21T05:47:08;2.17;;;1.97;;
3783;SDS011;1907;49.238;9.262;2022-08-21T05:49:35;2.10;;;2.00;;
3783;SDS011;1907;49.238;9.262;2022-08-21T05:52:01;1.60;;;1.50;;
3783;SDS011;1907;49.238;9.262;2022-08-21T05:54:28;4.13;;;1.53;;
3783;SDS011;1907;49.238;9.262;2022-08-21T05:56:53;2.37;;;1.97;;
3783;SDS011;1907;49.238;9.262;2022-08-21T05:59:19;5.80;;;2.50;;
3783;SDS011;1907;49.238;9.262;2022-08-21T06:01:45;7.27;;;2.23;;
3783;SDS011;1907;49.238;9.262;2022-08-21T06:04:11;2.50;;;2.27;;
3783;SDS011;1907;49.238;9.262;2022-08-21T06:06:37;1.90;;;1.80;;
3783;SDS011;1907;49.238;9.262;2022-08-21T06:09:04;2.13;;;2.03;;
3783;SDS011;1907;49.238;9.262;2022-08-21T06:11:30;1.73;;;1.63;;
3783;SDS011;1907;49.238;9.262;2022-08-21T06:13:56;1.23;;;1.20;;
3783;SDS011;1907;49.238;9.262;2022-08-21T06:16:22;2.30;;;1.80;;
3783;SDS011;1907;49.238;9.262;2022-08-21T06:18:48;1.63;;;1.53;;
3783;SDS011;1907;49.238;9.262;2022-08-21T06:21:14;1.70;;;1.60;;
3783;SDS011;1907;49.238;9.262;2022-08-21T06:23:40;2.10;;;2.00;;
3783;SDS011;1907;49.238;9.262;2022-08-21T06:26:07;3.07;;;1.63;;
3783;SDS011;1907;49.238;9.262;2022-08-21T06:28:33;1.73;;;1.63;;
3783;SDS011;1907;49.238;9.262;2022-08-21T06:31:00;1.90;;;1.80;;
3783;SDS011;1907;49.238;9.262;2022-08-21T06:33:26;2.03;;;1.87;;
3783;SDS011;1907;49.238;9.262;2022-08-21T06:35:52;2.37;;;2.23;;
3783;SDS011;1907;49.238;9.262;2022-08-21T06:38:18;1.90;;;1.80;;
3783;SDS011;1907;49.238;9.262;2022-08-21T06:40:44;2.07;;;1.97;;
3783;SDS011;1907;49.238;9.262;2022-08-21T06:43:11;2.63;;;1.43;;
3783;SDS011;1907;49.238;9.262;2022-08-21T06:45:39;1.50;;;1.40;;
3783;SDS011;1907;49.238;9.262;2022-08-21T06:48:05;3.37;;;2.23;;
3783;SDS011;1907;49.238;9.262;2022-08-21T06:50:34;1.50;;;1.40;;
3783;SDS011;1907;49.238;9.262;2022-08-21T06:53:03;7.13;;;1.90;;
3783;SDS011;1907;49.238;9.262;2022-08-21T06:55:34;2.10;;;2.00;;
3783;SDS011;1907;49.238;9.262;2022-08-21T06:58:01;1.40;;;1.30;;
3783;SDS011;1907;49.238;9.262;2022-08-21T07:00:28;4.20;;;1.93;;
3783;SDS011;1907;49.238;9.262;2022-08-21T07:02:55;1.90;;;1.80;;
3783;SDS011;1907;49.238;9.262;2022-08-21T07:05:21;1.57;;;1.47;;
3783;SDS011;1907;49.238;9.262;2022-08-21T07:07:46;2.57;;;1.70;;
3783;SDS011;1907;49.238;9.262;2022-08-21T07:10:13;1.87;;;1.77;;
3783;SDS011;1907;49.238;9.262;2022-08-21T07:12:39;2.47;;;2.27;;
3783;SDS011;1907;49.238;9.262;2022-08-21T07:15:06;1.70;;;1.60;;
3783;SDS011;1907;49.238;9.262;2022-08-21T07:17:32;1.37;;;1.27;;
3783;SDS011;1907;49.238;9.262;2022-08-21T07:19:58;1.80;;;1.70;;
3783;SDS011;1907;49.238;9.262;2022-08-21T07:22:26;2.47;;;2.27;;
3783;SDS011;1907;49.238;9.262;2022-08-21T07:24:52;2.90;;;2.17;;
3783;SDS011;1907;49.238;9.262;2022-08-21T07:27:59;5.53;;;2.57;;
3783;SDS011;1907;49.238;9.262;2022-08-21T07:31:05;4.00;;;1.77;;
3783;SDS011;1907;49.238;9.262;2022-08-21T07:34:10;2.03;;;1.83;;
3783;SDS011;1907;49.238;9.262;2022-08-21T07:36:56;2.20;;;1.93;;
3783;SDS011;1907;49.238;9.262;2022-08-21T07:40:11;5.63;;;1.83;;
3783;SDS011;1907;49.238;9.262;2022-08-21T07:43:18;2.87;;;2.77;;
3783;SDS011;1907;49.238;9.262;2022-08-21T07:45:49;2.73;;;2.03;;
3783;SDS011;1907;49.238;9.262;2022-08-21T07:48:56;1.87;;;1.77;;
3783;SDS011;1907;49.238;9.262;2022-08-21T07:59:06;4.63;;;4.13;;
3783;SDS011;1907;49.238;9.262;2022-08-21T08:05:09;4.10;;;3.90;;
3783;SDS011;1907;49.238;9.262;2022-08-21T08:08:02;4.77;;;4.57;;
3783;SDS011;1907;49.238;9.262;2022-08-21T08:10:36;5.63;;;4.10;;
3783;SDS011;1907;49.238;9.262;2022-08-21T08:13:03;3.97;;;3.73;;
3783;SDS011;1907;49.238;9.262;2022-08-21T08:15:40;3.87;;;3.70;;
3783;SDS011;1907;49.238;9.262;2022-08-21T08:19:15;5.80;;;5.40;;
3783;SDS011;1907;49.238;9.262;2022-08-21T08:26:28;5.37;;;5.00;;
3783;SDS011;1907;49.238;9.262;2022-08-21T08:29:56;5.27;;;4.80;;
3783;SDS011;1907;49.238;9.262;2022-08-21T08:37:09;4.93;;;4.30;;
3783;SDS011;1907;49.238;9.262;2022-08-21T08:41:02;6.77;;;5.77;;
3783;SDS011;1907;49.238;9.262;2022-08-21T08:46:49;9.33;;;4.20;;
3783;SDS011;1907;49.238;9.262;2022-08-21T08:49:58;7.77;;;6.03;;
3783;SDS011;1907;49.238;9.262;2022-08-21T08:53:23;19.57;;;6.63;;
3783;SDS011;1907;49.238;9.262;2022-08-21T08:56:36;5.40;;;4.90;;
3783;SDS011;1907;49.238;9.262;2022-08-21T09:00:08;5.30;;;5.10;;
3783;SDS011;1907;49.238;9.262;2022-08-21T09:03:33;5.70;;;5.20;;
3783;SDS011;1907;49.238;9.262;2022-08-21T09:07:09;5.70;;;5.30;;
3783;SDS011;1907;49.238;9.262;2022-08-21T09:10:30;4.90;;;4.60;;
3783;SDS011;1907;49.238;9.262;2022-08-21T09:13:51;7.17;;;5.10;;
3783;SDS011;1907;49.238;9.262;2022-08-21T09:20:35;6.93;;;5.60;;
3783;SDS011;1907;49.238;9.262;2022-08-21T09:27:28;6.63;;;4.80;;
3783;SDS011;1907;49.238;9.262;2022-08-21T09:47:43;4.90;;;4.50;;
3783;SDS011;1907;49.238;9.262;2022-08-21T09:50:51;3.60;;;3.40;;
3783;SDS011;1907;49.238;9.262;2022-08-21T09:54:30;5.10;;;3.83;;
3783;SDS011;1907;49.238;9.262;2022-08-21T10:01:25;5.50;;;3.63;;
3783;SDS011;1907;49.238;9.262;2022-08-21T10:04:53;4.90;;;3.80;;
3783;SDS011;1907;49.238;9.262;2022-08-21T10:07:24;4.63;;;3.43;;
3783;SDS011;1907;49.238;9.262;2022-08-21T10:11:15;3.40;;;3.20;;
3783;SDS011;1907;49.238;9.262;2022-08-21T10:14:13;2.73;;;2.53;;
3783;SDS011;1907;49.238;9.262;2022-08-21T10:17:54;10.43;;;4.13;;
3783;SDS011;1907;49.238;9.262;2022-08-21T10:21:21;4.57;;;2.70;;
3783;SDS011;1907;49.238;9.262;2022-08-21T10:32:03;3.87;;;2.90;;
3783;SDS011;1907;49.238;9.262;2022-08-21T10:35:44;4.50;;;4.20;;
3783;SDS011;1907;49.238;9.262;2022-08-21T10:49:05;7.70;;;2.90;;
3783;SDS011;1907;49.238;9.262;2022-08-21T11:00:09;2.13;;;2.03;;
3783;SDS011;1907;49.238;9.262;2022-08-21T11:02:55;2.00;;;1.80;;
3783;SDS011;1907;49.238;9.262;2022-08-21T11:05:36;3.10;;;2.90;;
3783;SDS011;1907;49.238;9.262;2022-08-21T11:08:08;2.50;;;2.33;;
3783;SDS011;1907;49.238;9.262;2022-08-21T11:16:19;3.40;;;2.33;;
3783;SDS011;1907;49.238;9.262;2022-08-21T11:19:00;5.60;;;2.50;;
3783;SDS011;1907;49.238;9.262;2022-08-21T11:21:48;4.70;;;2.53;;
3783;SDS011;1907;49.238;9.262;2022-08-21T11:29:39;2.97;;;2.77;;
3783;SDS011;1907;49.238;9.262;2022-08-21T11:43:16;3.40;;;2.20;;
3783;SDS011;1907;49.238;9.262;2022-08-21T11:45:50;5.10;;;2.10;;
3783;SDS011;1907;49.238;9.262;2022-08-21T11:51:14;2.57;;;2.47;;
3783;SDS011;1907;49.238;9.262;2022-08-21T11:56:17;2.27;;;2.17;;
3783;SDS011;1907;49.238;9.262;2022-08-21T11:58:56;4.03;;;2.33;;
3783;SDS011;1907;49.238;9.262;2022-08-21T12:01:35;2.40;;;1.90;;
3783;SDS011;1907;49.238;9.262;2022-08-21T12:04:28;2.50;;;2.40;;
3783;SDS011;1907;49.238;9.262;2022-08-21T12:07:08;3.63;;;2.90;;
3783;SDS011;1907;49.238;9.262;2022-08-21T12:09:50;3.53;;;3.20;;
3783;SDS011;1907;49.238;9.262;2022-08-21T12:12:23;2.63;;;2.53;;
3783;SDS011;1907;49.238;9.262;2022-08-21T12:15:05;3.33;;;2.60;;
3783;SDS011;1907;49.238;9.262;2022-08-21T12:29:13;3.80;;;2.70;;
3783;SDS011;1907;49.238;9.262;2022-08-21T12:32:04;3.00;;;2.80;;
3783;SDS011;1907;49.238;9.262;2022-08-21T12:34:38;3.40;;;2.83;;
3783;SDS011;1907;49.238;9.262;2022-08-21T12:39:44;3.57;;;3.13;;
3783;SDS011;1907;49.238;9.262;2022-08-21T12:42:19;2.50;;;2.40;;
3783;SDS011;1907;49.238;9.262;2022-08-21T12:44:50;2.87;;;2.40;;
3783;SDS011;1907;49.238;9.262;2022-08-21T12:47:47;6.60;;;2.67;;
3783;SDS011;1907;49.238;9.262;2022-08-21T12:50:24;2.90;;;2.60;;
3783;SDS011;1907;49.238;9.262;2022-08-21T12:55:40;2.40;;;2.20;;
3783;SDS011;1907;49.238;9.262;2022-08-21T12:58:16;3.20;;;3.00;;
3783;SDS011;1907;49.238;9.262;2022-08-21T13:00:47;3.17;;;2.87;;
3783;SDS011;1907;49.238;9.262;2022-08-21T13:03:16;4.03;;;3.23;;
3783;SDS011;1907;49.238;9.262;2022-08-21T13:05:42;2.67;;;2.30;;
3783;SDS011;1907;49.238;9.262;2022-08-21T13:08:09;3.20;;;2.10;;
3783;SDS011;1907;49.238;9.262;2022-08-21T13:10:37;2.60;;;2.40;;
3783;SDS011;1907;49.238;9.262;2022-08-21T13:13:06;5.50;;;3.67;;
3783;SDS011;1907;49.238;9.262;2022-08-21T13:15:38;3.37;;;3.17;;
3783;SDS011;1907;49.238;9.262;2022-08-21T13:18:06;3.47;;;3.27;;
3783;SDS011;1907;49.238;9.262;2022-08-21T13:20:36;7.63;;;2.30;;
3783;SDS011;1907;49.238;9.262;2022-08-21T13:25:52;2.63;;;2.43;;
3783;SDS011;1907;49.238;9.262;2022-08-21T13:28:20;2.50;;;2.40;;
3783;SDS011;1907;49.238;9.262;2022-08-21T13:30:51;2.23;;;2.13;;
3783;SDS011;1907;49.238;9.262;2022-08-21T13:33:19;2.33;;;2.13;;
3783;SDS011;1907;49.238;9.262;2022-08-21T13:38:23;1.97;;;1.87;;
3783;SDS011;1907;49.238;9.262;2022-08-21T13:40:53;2.20;;;2.10;;
3783;SDS011;1907;49.238;9.262;2022-08-21T13:43:22;2.30;;;2.13;;
3783;SDS011;1907;49.238;9.262;2022-08-21T13:45:54;2.57;;;2.37;;
3783;SDS011;1907;49.238;9.262;2022-08-21T13:48:22;2.70;;;2.30;;
3783;SDS011;1907;49.238;9.262;2022-08-21T13:50:51;2.17;;;2.00;;
3783;SDS011;1907;49.238;9.262;2022-08-21T13:53:22;2.50;;;2.40;;
3783;SDS011;1907;49.238;9.262;2022-08-21T13:55:53;2.73;;;2.53;;
3783;SDS011;1907;49.238;9.262;2022-08-21T13:58:33;3.20;;;2.90;;
3783;SDS011;1907;49.238;9.262;2022-08-21T14:01:49;2.27;;;2.07;;
3783;SDS011;1907;49.238;9.262;2022-08-21T14:04:18;2.83;;;2.63;;
3783;SDS011;1907;49.238;9.262;2022-08-21T14:06:45;3.13;;;2.27;;
3783;SDS011;1907;49.238;9.262;2022-08-21T14:09:13;2.83;;;2.73;;
3783;SDS011;1907;49.238;9.262;2022-08-21T14:12:11;5.93;;;2.33;;
3783;SDS011;1907;49.238;9.262;2022-08-21T14:14:39;3.43;;;2.40;;
3783;SDS011;1907;49.238;9.262;2022-08-21T14:17:07;3.27;;;2.50;;
3783;SDS011;1907;49.238;9.262;2022-08-21T14:19:38;2.10;;;2.00;;
3783;SDS011;1907;49.238;9.262;2022-08-21T14:25:08;4.30;;;2.07;;
3783;SDS011;1907;49.238;9.262;2022-08-21T14:27:34;3.23;;;2.10;;
3783;SDS011;1907;49.238;9.262;2022-08-21T14:30:08;2.03;;;1.93;;
3783;SDS011;1907;49.238;9.262;2022-08-21T14:32:37;2.77;;;2.57;;
3783;SDS011;1907;49.238;9.262;2022-08-21T14:35:06;2.27;;;2.07;;
3783;SDS011;1907;49.238;9.262;2022-08-21T14:37:32;3.07;;;2.90;;
3783;SDS011;1907;49.238;9.262;2022-08-21T14:39:58;2.20;;;2.10;;
3783;SDS011;1907;49.238;9.262;2022-08-21T14:42:24;2.77;;;2.57;;
3783;SDS011;1907;49.238;9.262;2022-08-21T14:44:50;4.73;;;3.10;;
3783;SDS011;1907;49.238;9.262;2022-08-21T14:47:18;2.10;;;2.00;;
3783;SDS011;1907;49.238;9.262;2022-08-21T14:49:44;2.70;;;2.50;;
3783;SDS011;1907;49.238;9.262;2022-08-21T14:52:10;2.17;;;2.07;;
3783;SDS011;1907;49.238;9.262;2022-08-21T14:54:35;2.27;;;2.17;;
3783;SDS011;1907;49.238;9.262;2022-08-21T14:57:02;2.30;;;2.20;;
3783;SDS011;1907;49.238;9.262;2022-08-21T14:59:31;3.07;;;2.87;;
3783;SDS011;1907;49.238;9.262;2022-08-21T15:01:58;2.50;;;2.30;;
3783;SDS011;1907;49.238;9.262;2022-08-21T15:04:24;2.07;;;1.97;;
3783;SDS011;1907;49.238;9.262;2022-08-21T15:06:50;3.10;;;2.53;;
3783;SDS011;1907;49.238;9.262;2022-08-21T15:09:15;2.37;;;2.27;;
3783;SDS011;1907;49.238;9.262;2022-08-21T15:11:41;1.73;;;1.60;;
3783;SDS011;1907;49.238;9.262;2022-08-21T15:14:08;2.10;;;1.90;;
3783;SDS011;1907;49.238;9.262;2022-08-21T15:16:37;2.47;;;2.27;;
3783;SDS011;1907;49.238;9.262;2022-08-21T15:19:02;2.40;;;2.20;;
3783;SDS011;1907;49.238;9.262;2022-08-21T15:21:28;2.50;;;2.07;;
3783;SDS011;1907;49.238;9.262;2022-08-21T15:23:54;2.67;;;2.47;;
3783;SDS011;1907;49.238;9.262;2022-08-21T15:26:20;5.03;;;3.17;;
3783;SDS011;1907;49.238;9.262;2022-08-21T15:28:47;2.57;;;2.37;;
3783;SDS011;1907;49.238;9.262;2022-08-21T15:31:13;2.30;;;2.10;;
3783;SDS011;1907;49.238;9.262;2022-08-21T15:33:39;2.53;;;2.33;;
3783;SDS011;1907;49.238;9.262;2022-08-21T15:36:04;1.67;;;1.57;;
3783;SDS011;1907;49.238;9.262;2022-08-21T15:38:30;2.67;;;2.47;;
3783;SDS011;1907;49.238;9.262;2022-08-21T15:40:56;2.30;;;2.20;;
3783;SDS011;1907;49.238;9.262;2022-08-21T15:43:26;2.20;;;2.10;;
3783;SDS011;1907;49.238;9.262;2022-08-21T15:45:54;1.60;;;1.50;;
3783;SDS011;1907;49.238;9.262;2022-08-21T15:48:20;2.40;;;2.20;;
3783;SDS011;1907;49.238;9.262;2022-08-21T15:50:46;2.33;;;2.23;;
3783;SDS011;1907;49.238;9.262;2022-08-21T15:53:12;4.50;;;2.90;;
3783;SDS011;1907;49.238;9.262;2022-08-21T15:55:39;2.43;;;2.23;;
3783;SDS011;1907;49.238;9.262;2022-08-21T15:58:05;5.03;;;2.10;;
3783;SDS011;1907;49.238;9.262;2022-08-21T16:00:31;5.10;;;2.50;;
3783;SDS011;1907;49.238;9.262;2022-08-21T16:03:00;4.33;;;3.03;;
3783;SDS011;1907;49.238;9.262;2022-08-21T16:05:29;17.23;;;5.33;;
3783;SDS011;1907;49.238;9.262;2022-08-21T16:07:54;4.73;;;2.40;;
3783;SDS011;1907;49.238;9.262;2022-08-21T16:10:21;2.40;;;1.70;;
3783;SDS011;1907;49.238;9.262;2022-08-21T16:13:04;1.97;;;1.87;;
3783;SDS011;1907;49.238;9.262;2022-08-21T16:15:32;2.40;;;2.30;;
3783;SDS011;1907;49.238;9.262;2022-08-21T16:17:58;2.20;;;2.10;;
3783;SDS011;1907;49.238;9.262;2022-08-21T16:20:25;2.00;;;1.90;;
3783;SDS011;1907;49.238;9.262;2022-08-21T16:22:53;2.17;;;2.07;;
3783;SDS011;1907;49.238;9.262;2022-08-21T16:25:20;2.10;;;1.93;;
3783;SDS011;1907;49.238;9.262;2022-08-21T16:27:49;2.67;;;2.47;;
3783;SDS011;1907;49.238;9.262;2022-08-21T16:30:21;2.30;;;2.20;;
3783;SDS011;1907;49.238;9.262;2022-08-21T16:32:47;2.87;;;2.40;;
3783;SDS011;1907;49.238;9.262;2022-08-21T16:35:14;3.77;;;1.80;;
3783;SDS011;1907;49.238;9.262;2022-08-21T16:37:42;2.90;;;2.10;;
3783;SDS011;1907;49.238;9.262;2022-08-21T16:40:08;2.30;;;2.10;;
3783;SDS011;1907;49.238;9.262;2022-08-21T16:42:35;1.70;;;1.60;;
3783;SDS011;1907;49.238;9.262;2022-08-21T16:45:04;1.70;;;1.60;;
3783;SDS011;1907;49.238;9.262;2022-08-21T16:47:31;2.67;;;2.47;;
3783;SDS011;1907;49.238;9.262;2022-08-21T16:49:56;3.20;;;2.57;;
3783;SDS011;1907;49.238;9.262;2022-08-21T16:52:22;2.50;;;2.40;;
3783;SDS011;1907;49.238;9.262;2022-08-21T16:54:48;1.87;;;1.77;;
3783;SDS011;1907;49.238;9.262;2022-08-21T16:57:14;2.20;;;2.10;;
3783;SDS011;1907;49.238;9.262;2022-08-21T16:59:40;9.97;;;2.80;;
3783;SDS011;1907;49.238;9.262;2022-08-21T17:02:10;3.10;;;2.20;;
3783;SDS011;1907;49.238;9.262;2022-08-21T17:04:51;2.90;;;2.30;;
3783;SDS011;1907;49.238;9.262;2022-08-21T17:07:17;2.20;;;2.10;;
3783;SDS011;1907;49.238;9.262;2022-08-21T17:09:43;3.20;;;2.30;;
3783;SDS011;1907;49.238;9.262;2022-08-21T17:12:08;2.30;;;1.60;;
3783;SDS011;1907;49.238;9.262;2022-08-21T17:14:34;2.37;;;2.20;;
3783;SDS011;1907;49.238;9.262;2022-08-21T17:17:01;1.63;;;1.53;;
3783;SDS011;1907;49.238;9.262;2022-08-21T17:19:28;2.77;;;2.50;;
3783;SDS011;1907;49.238;9.262;2022-08-21T17:21:54;2.37;;;2.27;;
3783;SDS011;1907;49.238;9.262;2022-08-21T17:24:19;1.87;;;1.77;;
3783;SDS011;1907;49.238;9.262;2022-08-21T17:26:45;3.10;;;1.87;;
3783;SDS011;1907;49.238;9.262;2022-08-21T17:29:12;20.43;;;2.97;;
3783;SDS011;1907;49.238;9.262;2022-08-21T17:31:40;1.80;;;1.70;;
3783;SDS011;1907;49.238;9.262;2022-08-21T17:34:07;12.03;;;3.60;;
3783;SDS011;1907;49.238;9.262;2022-08-21T17:36:34;2.00;;;1.80;;
3783;SDS011;1907;49.238;9.262;2022-08-21T17:39:00;2.57;;;2.47;;
3783;SDS011;1907;49.238;9.262;2022-08-21T17:41:25;1.73;;;1.60;;
3783;SDS011;1907;49.238;9.262;2022-08-21T17:43:52;2.13;;;2.03;;
3783;SDS011;1907;49.238;9.262;2022-08-21T17:46:20;3.07;;;2.63;;
3783;SDS011;1907;49.238;9.262;2022-08-21T17:48:48;2.50;;;2.30;;
3783;SDS011;1907;49.238;9.262;2022-08-21T17:51:15;2.30;;;2.10;;
3783;SDS011;1907;49.238;9.262;2022-08-21T17:53:40;1.93;;;1.83;;
3783;SDS011;1907;49.238;9.262;2022-08-21T17:56:06;5.03;;;1.87;;
3783;SDS011;1907;49.238;9.262;2022-08-21T17:58:32;2.40;;;2.30;;
3783;SDS011;1907;49.238;9.262;2022-08-21T18:01:02;2.40;;;2.30;;
3783;SDS011;1907;49.238;9.262;2022-08-21T18:03:29;2.40;;;2.30;;
3783;SDS011;1907;49.238;9.262;2022-08-21T18:05:57;2.70;;;2.50;;
3783;SDS011;1907;49.238;9.262;2022-08-21T18:08:23;3.07;;;2.97;;